sensor_id;sensor_type;location;lat;lon;timestamp;temperature;humidity
15235;DHT22;7720;51.926;4.488;2022-07-23T08:06:46;22.70;99.90
15235;DHT22;7720;51.926;4.488;2022-07-23T08:11:49;24.10;99.90
15235;DHT22;7720;51.926;4.488;2022-07-23T08:16:53;22.90;99.90
15235;DHT22;7720;51.926;4.488;2022-07-23T08:22:16;23.70;99.90
15235;DHT22;7720;51.926;4.488;2022-07-23T08:27:20;23.40;99.90
15235;DHT22;7720;51.926;4.488;2022-07-23T08:32:23;23.90;99.90
15235;DHT22;7720;51.926;4.488;2022-07-23T08:37:47;24.00;99.90
15235;DHT22;7720;51.926;4.488;2022-07-23T08:42:50;23.90;99.90
15235;DHT22;7720;51.926;4.488;2022-07-23T08:47:57;24.20;99.90
15235;DHT22;7720;51.926;4.488;2022-07-23T08:53:07;24.50;99.90
15235;DHT22;7720;51.926;4.488;2022-07-23T08:58:11;24.20;99.90
15235;DHT22;7720;51.926;4.488;2022-07-23T09:03:17;24.30;99.90
15235;DHT22;7720;51.926;4.488;2022-07-23T09:08:23;23.70;99.90
15235;DHT22;7720;51.926;4.488;2022-07-23T09:13:35;23.80;99.90
15235;DHT22;7720;51.926;4.488;2022-07-23T09:18:42;24.20;99.90
15235;DHT22;7720;51.926;4.488;2022-07-23T09:23:51;24.60;99.80
15235;DHT22;7720;51.926;4.488;2022-07-23T09:28:57;24.70;99.70
15235;DHT22;7720;51.926;4.488;2022-07-23T09:34:08;24.60;99.30
15235;DHT22;7720;51.926;4.488;2022-07-23T09:39:14;24.60;99.50
15235;DHT22;7720;51.926;4.488;2022-07-23T09:44:20;24.80;99.20
15235;DHT22;7720;51.926;4.488;2022-07-23T09:49:32;24.70;99.00
15235;DHT22;7720;51.926;4.488;2022-07-23T09:54:38;25.00;98.60
15235;DHT22;7720;51.926;4.488;2022-07-23T09:59:43;25.00;98.50
15235;DHT22;7720;51.926;4.488;2022-07-23T10:04:48;25.00;98.40
15235;DHT22;7720;51.926;4.488;2022-07-23T10:10:02;24.80;98.00
15235;DHT22;7720;51.926;4.488;2022-07-23T10:15:40;24.80;98.30
15235;DHT22;7720;51.926;4.488;2022-07-23T10:20:44;25.10;97.60
15235;DHT22;7720;51.926;4.488;2022-07-23T10:25:57;24.60;97.90
15235;DHT22;7720;51.926;4.488;2022-07-23T10:31:06;25.10;97.90
15235;DHT22;7720;51.926;4.488;2022-07-23T10:36:40;25.20;97.40
15235;DHT22;7720;51.926;4.488;2022-07-23T10:41:46;25.30;96.80
15235;DHT22;7720;51.926;4.488;2022-07-23T10:46:57;25.10;96.20
15235;DHT22;7720;51.926;4.488;2022-07-23T10:52:20;25.20;96.90
15235;DHT22;7720;51.926;4.488;2022-07-23T10:57:25;25.00;96.40
15235;DHT22;7720;51.926;4.488;2022-07-23T11:02:30;24.80;96.40
15235;DHT22;7720;51.926;4.488;2022-07-23T11:07:33;24.90;96.60
15235;DHT22;7720;51.926;4.488;2022-07-23T11:12:38;25.10;96.30
15235;DHT22;7720;51.926;4.488;2022-07-23T11:17:59;25.00;96.00
15235;DHT22;7720;51.926;4.488;2022-07-23T11:23:02;25.00;96.40
15235;DHT22;7720;51.926;4.488;2022-07-23T11:28:25;25.00;95.80
15235;DHT22;7720;51.926;4.488;2022-07-23T11:33:28;24.80;95.80
15235;DHT22;7720;51.926;4.488;2022-07-23T11:38:32;24.80;96.10
15235;DHT22;7720;51.926;4.488;2022-07-23T11:43:38;24.90;95.50
15235;DHT22;7720;51.926;4.488;2022-07-23T11:48:41;24.90;95.60
15235;DHT22;7720;51.926;4.488;2022-07-23T11:53:45;24.80;95.80
15235;DHT22;7720;51.926;4.488;2022-07-23T11:58:55;24.50;95.90
15235;DHT22;7720;51.926;4.488;2022-07-23T12:04:01;24.70;95.80
15235;DHT22;7720;51.926;4.488;2022-07-23T12:09:06;24.80;95.80
15235;DHT22;7720;51.926;4.488;2022-07-23T12:14:11;24.90;95.70
15235;DHT22;7720;51.926;4.488;2022-07-23T12:19:15;24.90;95.60
15235;DHT22;7720;51.926;4.488;2022-07-23T12:24:18;25.00;96.00
15235;DHT22;7720;51.926;4.488;2022-07-23T12:29:34;25.10;95.90
15235;DHT22;7720;51.926;4.488;2022-07-23T12:34:38;25.30;95.80
15235;DHT22;7720;51.926;4.488;2022-07-23T12:39:41;25.50;95.30
15235;DHT22;7720;51.926;4.488;2022-07-23T12:45:06;25.40;95.00
15235;DHT22;7720;51.926;4.488;2022-07-23T12:50:31;25.20;95.10
15235;DHT22;7720;51.926;4.488;2022-07-23T12:55:34;25.20;95.20
15235;DHT22;7720;51.926;4.488;2022-07-23T13:01:04;25.30;95.10
15235;DHT22;7720;51.926;4.488;2022-07-23T13:06:09;25.40;94.20
15235;DHT22;7720;51.926;4.488;2022-07-23T13:11:13;25.30;94.50
15235;DHT22;7720;51.926;4.488;2022-07-23T13:16:20;25.30;95.30
15235;DHT22;7720;51.926;4.488;2022-07-23T13:21:23;25.40;95.40
15235;DHT22;7720;51.926;4.488;2022-07-23T13:26:27;25.50;95.50
15235;DHT22;7720;51.926;4.488;2022-07-23T13:31:32;25.70;95.40
15235;DHT22;7720;51.926;4.488;2022-07-23T13:36:36;25.50;95.50
15235;DHT22;7720;51.926;4.488;2022-07-23T13:41:39;25.70;95.60
15235;DHT22;7720;51.926;4.488;2022-07-23T13:46:52;25.70;95.60
15235;DHT22;7720;51.926;4.488;2022-07-23T13:51:56;25.60;95.60
15235;DHT22;7720;51.926;4.488;2022-07-23T13:57:00;25.60;95.40
15235;DHT22;7720;51.926;4.488;2022-07-23T14:02:05;25.70;94.50
15235;DHT22;7720;51.926;4.488;2022-07-23T14:07:26;25.60;94.00
15235;DHT22;7720;51.926;4.488;2022-07-23T14:12:29;25.80;94.70
15235;DHT22;7720;51.926;4.488;2022-07-23T14:17:40;26.00;94.50
15235;DHT22;7720;51.926;4.488;2022-07-23T14:22:44;25.60;94.20
15235;DHT22;7720;51.926;4.488;2022-07-23T14:27:47;25.80;94.20
15235;DHT22;7720;51.926;4.488;2022-07-23T14:32:51;26.10;93.80
15235;DHT22;7720;51.926;4.488;2022-07-23T14:37:54;26.10;93.30
15235;DHT22;7720;51.926;4.488;2022-07-23T14:42:58;26.30;93.20
15235;DHT22;7720;51.926;4.488;2022-07-23T14:48:03;26.40;93.00
15235;DHT22;7720;51.926;4.488;2022-07-23T14:53:07;26.30;93.00
15235;DHT22;7720;51.926;4.488;2022-07-23T14:58:10;26.20;93.40
15235;DHT22;7720;51.926;4.488;2022-07-23T15:03:14;26.10;93.60
15235;DHT22;7720;51.926;4.488;2022-07-23T15:08:18;26.20;93.70
15235;DHT22;7720;51.926;4.488;2022-07-23T15:13:24;26.10;93.40
15235;DHT22;7720;51.926;4.488;2022-07-23T15:18:31;26.20;93.80
15235;DHT22;7720;51.926;4.488;2022-07-23T15:23:34;26.10;93.80
15235;DHT22;7720;51.926;4.488;2022-07-23T15:28:40;26.10;93.80
15235;DHT22;7720;51.926;4.488;2022-07-23T15:33:44;26.10;93.30
15235;DHT22;7720;51.926;4.488;2022-07-23T15:38:48;26.20;93.60
15235;DHT22;7720;51.926;4.488;2022-07-23T15:43:53;26.10;93.30
15235;DHT22;7720;51.926;4.488;2022-07-23T15:48:57;26.10;93.60
15235;DHT22;7720;51.926;4.488;2022-07-23T15:54:02;26.00;93.50
15235;DHT22;7720;51.926;4.488;2022-07-23T15:59:07;26.10;93.50
15235;DHT22;7720;51.926;4.488;2022-07-23T16:04:13;26.10;93.70
15235;DHT22;7720;51.926;4.488;2022-07-23T16:09:17;26.10;93.60
15235;DHT22;7720;51.926;4.488;2022-07-23T16:14:21;26.10;93.50
15235;DHT22;7720;51.926;4.488;2022-07-23T16:19:25;26.00;93.70
15235;DHT22;7720;51.926;4.488;2022-07-23T16:24:28;26.10;94.10
15235;DHT22;7720;51.926;4.488;2022-07-23T16:29:31;26.10;94.60
15235;DHT22;7720;51.926;4.488;2022-07-23T16:34:36;25.90;94.60
15235;DHT22;7720;51.926;4.488;2022-07-23T16:39:39;26.00;94.90
15235;DHT22;7720;51.926;4.488;2022-07-23T16:44:42;25.90;94.90
15235;DHT22;7720;51.926;4.488;2022-07-23T16:49:47;26.00;95.10
15235;DHT22;7720;51.926;4.488;2022-07-23T16:54:50;25.90;95.30
15235;DHT22;7720;51.926;4.488;2022-07-23T16:59:53;25.80;95.40
15235;DHT22;7720;51.926;4.488;2022-07-23T17:04:58;25.70;95.50
15235;DHT22;7720;51.926;4.488;2022-07-23T17:10:01;25.80;95.30
15235;DHT22;7720;51.926;4.488;2022-07-23T17:15:09;25.90;95.80
15235;DHT22;7720;51.926;4.488;2022-07-23T17:20:16;25.90;96.00
15235;DHT22;7720;51.926;4.488;2022-07-23T17:25:20;25.90;96.00
15235;DHT22;7720;51.926;4.488;2022-07-23T17:30:25;25.70;96.20
15235;DHT22;7720;51.926;4.488;2022-07-23T17:35:30;25.80;96.30
15235;DHT22;7720;51.926;4.488;2022-07-23T17:40:33;25.50;96.60
15235;DHT22;7720;51.926;4.488;2022-07-23T17:45:36;25.40;96.90
15235;DHT22;7720;51.926;4.488;2022-07-23T17:50:41;25.60;96.90
15235;DHT22;7720;51.926;4.488;2022-07-23T17:55:45;25.50;97.10
15235;DHT22;7720;51.926;4.488;2022-07-23T18:00:49;25.50;97.10
15235;DHT22;7720;51.926;4.488;2022-07-23T18:05:53;25.40;97.40
